Time;durP1;ratioP1;P1;durP2;ratioP2;P2;SDS_P1;SDS_P2;PMS_P1;PMS_P2;Temp;Humidity;BMP_temperature;BMP_pressure;BME280_temperature;BME280_humidity;BME280_pressure;Samples;Min_cycle;Max_cycle;Signal;HPM_P1;HPM_P2
2021/04/15 00:04:23;;;;;;;3.95;3.55;;;;;;;1.75;83.69;99138.11;239611;1196;23104;-78
2021/04/15 00:09:25;;;;;;;4.65;4.10;;;;;;;1.74;83.79;99136.48;239681;1196;23111;-77
2021/04/15 00:14:28;;;;;;;4.47;3.93;;;;;;;1.76;83.28;99134.41;239715;1195;23111;-78
2021/04/15 00:19:33;;;;;;;9.05;5.60;;;;;;;1.78;83.09;99132.38;239600;1196;23099;-77
2021/04/15 00:24:36;;;;;;;5.93;4.40;;;;;;;1.77;83.24;99129.95;239772;1196;23221;-77
2021/04/15 00:29:38;;;;;;;5.47;3.57;;;;;;;1.73;83.09;99123.50;239593;1196;23162;-77
2021/04/15 00:34:41;;;;;;;5.25;3.55;;;;;;;1.67;83.69;99125.20;239657;1194;23428;-76
2021/04/15 00:39:43;;;;;;;3.90;3.50;;;;;;;1.60;83.61;99124.47;239542;1196;23137;-76
2021/04/15 00:44:46;;;;;;;5.43;4.53;;;;;;;1.57;83.82;99120.44;239225;1196;23145;-77
2021/04/15 00:49:55;;;;;;;4.20;3.60;;;;;;;1.57;83.95;99117.80;239170;1196;23119;-77
2021/04/15 00:55:02;;;;;;;4.33;3.43;;;;;;;1.52;83.82;99121.08;239575;1196;23271;-77
2021/04/15 01:00:11;;;;;;;4.20;3.40;;;;;;;1.46;84.19;99121.97;239467;1197;23116;-77
2021/04/15 01:05:24;;;;;;;4.20;3.37;;;;;;;1.42;83.92;99118.15;239775;1195;25997;-76
2021/04/15 01:10:31;;;;;;;3.97;3.43;;;;;;;1.39;84.48;99123.08;239621;1196;23108;-76
2021/04/15 01:15:46;;;;;;;4.77;3.77;;;;;;;1.35;84.62;99112.14;239539;1196;24535;-77
2021/04/15 01:20:59;;;;;;;8.35;5.50;;;;;;;1.35;84.83;99112.14;239538;1198;23210;-77
2021/04/15 01:26:23;;;;;;;6.75;4.60;;;;;;;1.35;84.74;99110.30;239515;1199;23337;-76
2021/04/15 01:31:43;;;;;;;5.45;4.30;;;;;;;1.30;84.77;99112.80;239547;1196;23115;-75
2021/04/15 01:36:51;;;;;;;;;;;;;;;1.28;84.39;99103.48;239364;1201;23112;-76
2021/04/15 01:42:09;;;;;;;6.33;5.40;;;;;;;1.24;84.79;99092.55;239572;1196;21601;-76
2021/04/15 01:47:21;;;;;;;8.90;5.60;;;;;;;1.21;84.66;99094.84;239186;1196;23114;-75
2021/04/15 01:52:29;;;;;;;6.03;4.60;;;;;;;1.16;85.29;99090.19;239531;1199;23132;-76
2021/04/15 01:57:48;;;;;;;6.77;5.23;;;;;;;1.15;85.28;99092.04;239781;1196;23116;-76
2021/04/15 02:02:56;;;;;;;6.93;5.47;;;;;;;1.16;85.12;99087.55;239641;1199;23124;-77
2021/04/15 02:08:18;;;;;;;5.90;5.15;;;;;;;1.14;85.29;99085.14;239642;1196;23126;-76
2021/04/15 02:13:22;;;;;;;7.33;5.77;;;;;;;1.09;85.19;99087.64;239645;1197;26662;-75
2021/04/15 02:18:46;;;;;;;6.35;5.05;;;;;;;1.06;85.97;99082.78;239920;1196;23131;-75
2021/04/15 02:24:07;;;;;;;6.70;5.93;;;;;;;1.03;85.72;99075.31;239608;1195;23269;-75
2021/04/15 02:29:19;;;;;;;8.30;6.40;;;;;;;1.02;85.29;99073.69;239379;1196;23112;-75
2021/04/15 02:34:25;;;;;;;7.67;6.33;;;;;;;1.01;85.92;99080.80;239549;1199;23097;-75
2021/04/15 02:39:33;;;;;;;10.20;7.10;;;;;;;1.01;85.42;99072.09;239510;1196;23089;-76
2021/04/15 02:44:52;;;;;;;7.87;5.90;;;;;;;0.99;85.81;99074.13;239559;1197;23131;-75
2021/04/15 02:49:57;;;;;;;6.50;5.80;;;;;;;0.95;86.05;99062.40;239464;1196;23401;-76
2021/04/15 02:55:05;;;;;;;7.90;5.80;;;;;;;0.95;85.89;99072.95;239727;1196;23140;-75
2021/04/15 03:00:27;;;;;;;8.55;6.05;;;;;;;0.91;86.23;99063.86;239576;1199;23115;-75
2021/04/15 03:05:34;;;;;;;6.45;5.80;;;;;;;0.90;86.34;99075.45;239226;1196;23170;-75
2021/04/15 03:10:45;;;;;;;7.73;5.90;;;;;;;0.84;86.43;99075.28;239284;1196;27332;-75
2021/04/15 03:15:53;;;;;;;6.07;4.87;;;;;;;0.78;86.50;99065.59;239433;1199;23139;-76
2021/04/15 03:21:09;;;;;;;7.05;5.55;;;;;;;0.73;86.19;99067.27;239348;1196;23169;-74
2021/04/15 03:26:34;;;;;;;7.97;6.00;;;;;;;0.73;86.90;99075.17;239296;1199;23223;-75
2021/04/15 03:31:43;;;;;;;9.03;6.57;;;;;;;0.73;86.80;99068.09;239326;1196;23104;-75
2021/04/15 03:36:51;;;;;;;6.90;5.80;;;;;;;0.73;86.89;99061.98;239574;1199;23130;-75
2021/04/15 03:41:57;;;;;;;10.20;7.60;;;;;;;0.70;86.27;99065.89;239619;1196;23217;-75
2021/04/15 03:47:12;;;;;;;10.05;7.60;;;;;;;0.69;86.95;99066.91;239432;1196;23244;-75
2021/04/15 03:52:21;;;;;;;10.90;7.80;;;;;;;0.67;86.34;99059.22;239429;1194;23119;-74
2021/04/15 03:57:24;;;;;;;12.73;8.47;;;;;;;0.69;86.98;99064.27;239420;1196;23113;-76
2021/04/15 04:02:35;;;;;;;9.90;7.50;;;;;;;0.67;86.79;99063.66;239239;1196;23343;-75
2021/04/15 04:07:59;;;;;;;9.60;7.45;;;;;;;0.65;86.61;99066.52;239182;1196;23170;-75
2021/04/15 04:13:18;;;;;;;10.40;7.73;;;;;;;0.63;86.97;99063.30;239473;1196;23122;-76
2021/04/15 04:18:29;;;;;;;12.25;7.45;;;;;;;0.63;86.98;99052.76;239487;1200;23248;-76
2021/04/15 04:24:02;;;;;;;9.57;7.00;;;;;;;0.64;87.80;99061.46;239295;1196;23108;-75
2021/04/15 04:29:17;;;;;;;9.00;7.37;;;;;;;0.64;87.18;99064.09;239553;1199;23118;-76
2021/04/15 04:34:21;;;;;;;10.03;7.73;;;;;;;0.65;87.76;99068.36;239540;1196;23131;-75
2021/04/15 04:39:28;;;;;;;8.40;5.60;;;;;;;0.61;87.83;99067.17;239606;1196;23105;-76
2021/04/15 04:44:44;;;;;;;7.90;6.05;;;;;;;0.58;87.49;99065.77;239237;1199;26029;-75
2021/04/15 04:49:59;;;;;;;7.53;5.90;;;;;;;0.57;87.74;99073.90;239344;1196;23238;-75
2021/04/15 04:55:11;;;;;;;6.90;4.70;;;;;;;0.56;87.28;99069.64;239436;1195;23181;-74
2021/04/15 05:00:18;;;;;;;8.40;6.05;;;;;;;0.55;87.91;99073.33;239827;1196;23140;-75
2021/04/15 05:05:25;;;;;;;8.25;5.60;;;;;;;0.55;87.96;99068.05;239522;1199;23135;-75
2021/04/15 05:10:34;;;;;;;7.75;6.10;;;;;;;0.54;87.62;99071.70;239463;1196;23137;-75
2021/04/15 05:15:39;;;;;;;8.60;6.40;;;;;;;0.55;87.96;99074.12;239506;1196;23150;-75
2021/04/15 05:20:43;;;;;;;6.20;4.35;;;;;;;0.58;87.57;99059.70;239520;1199;23163;-74
2021/04/15 05:26:10;;;;;;;6.33;4.60;;;;;;;0.59;88.23;99085.02;239801;1196;23677;-74
2021/04/15 05:31:17;;;;;;;5.63;4.27;;;;;;;0.60;88.01;99062.92;239423;1196;26127;-75
2021/04/15 05:36:38;;;;;;;6.47;5.60;;;;;;;0.64;87.63;99072.01;239925;1196;23125;-75
2021/04/15 05:42:04;;;;;;;5.23;4.70;;;;;;;0.70;88.05;99063.25;240169;1196;25968;-76
2021/04/15 05:47:23;;;;;;;6.43;5.00;;;;;;;0.74;88.04;99068.88;239844;1196;23279;-75
2021/04/15 05:52:43;;;;;;;6.27;4.97;;;;;;;0.80;88.31;99074.11;239623;1200;23115;-75
2021/04/15 05:57:53;;;;;;;8.43;5.50;;;;;;;0.81;87.69;99065.18;239623;1196;23245;-75
2021/04/15 06:03:08;;;;;;;5.97;4.53;;;;;;;0.87;87.97;99062.67;239810;1196;23121;-74
2021/04/15 06:08:11;;;;;;;5.57;3.87;;;;;;;0.91;88.24;99059.41;240014;1196;23119;-75
2021/04/15 06:13:24;;;;;;;4.47;3.83;;;;;;;0.95;88.37;99054.48;239768;1196;23121;-75
2021/04/15 06:18:40;;;;;;;3.75;3.40;;;;;;;1.01;87.78;99058.91;239975;1196;23105;-75
2021/04/15 06:24:11;;;;;;;3.50;3.20;;;;;;;1.04;88.21;99047.11;239653;1196;27243;-74
2021/04/15 06:29:31;;;;;;;5.03;3.50;;;;;;;1.11;88.29;99051.28;239861;1195;23101;-74
2021/04/15 06:34:35;;;;;;;2.90;2.50;;;;;;;1.16;88.58;99056.72;240017;1196;23102;-74
2021/04/15 06:39:55;;;;;;;3.00;2.70;;;;;;;1.19;88.30;99037.80;240071;1199;23173;-74
2021/04/15 06:45:47;;;;;;;3.40;2.93;;;;;;;1.18;88.50;99049.37;239541;1196;23270;-76
2021/04/15 06:51:44;;;;;;;3.20;2.80;;;;;;;1.19;87.97;99047.55;239533;1196;23112;-74
2021/04/15 06:57:11;;;;;;;3.67;2.83;;;;;;;1.19;88.01;99040.44;239180;1196;23112;-75
2021/04/15 07:02:52;;;;;;;3.95;2.70;;;;;;;1.16;88.37;99032.97;239472;1196;23137;-74
2021/04/15 07:08:06;;;;;;;4.73;2.80;;;;;;;1.15;88.17;99043.74;240648;1194;23121;-74
2021/04/15 07:13:22;;;;;;;2.80;2.40;;;;;;;1.18;88.46;99043.30;240067;1196;23148;-73
2021/04/15 07:18:56;;;;;;;3.95;2.85;;;;;;;1.30;88.08;99046.81;239754;1195;23258;-75
2021/04/15 07:24:21;;;;;;;5.30;3.80;;;;;;;1.37;87.71;99036.16;239551;1198;23105;-74
2021/04/15 07:30:01;;;;;;;5.63;4.10;;;;;;;1.48;87.69;99048.64;239750;1196;23169;-74
2021/04/15 07:35:27;;;;;;;5.33;4.07;;;;;;;1.57;88.04;99037.75;240069;1196;23101;-75
2021/04/15 07:40:53;;;;;;;5.03;4.37;;;;;;;1.66;87.71;99039.06;240055;1196;23144;-76
2021/04/15 07:46:35;;;;;;;7.25;5.20;;;;;;;1.79;88.38;99054.75;239988;1196;23256;-75
2021/04/15 07:52:31;;;;;;;6.83;5.40;;;;;;;1.84;88.06;99041.66;240455;1198;23141;-76
2021/04/15 07:58:11;;;;;;;5.30;4.60;;;;;;;1.82;87.27;99053.47;239802;1196;23142;-75
2021/04/15 08:03:43;;;;;;;5.55;4.30;;;;;;;1.78;87.60;99047.84;239568;1196;23118;-75
2021/04/15 08:09:20;;;;;;;6.23;5.30;;;;;;;1.76;87.26;99047.25;239761;1196;23245;-75
2021/04/15 08:14:53;;;;;;;5.25;4.20;;;;;;;1.71;87.18;99042.64;239744;1199;23139;-76
2021/04/15 08:20:07;;;;;;;4.90;4.05;;;;;;;1.74;87.42;99045.88;239985;1196;23406;-74
2021/04/15 08:25:23;;;;;;;7.20;4.95;;;;;;;1.80;87.48;99051.05;239617;1196;23120;-75
2021/04/15 08:30:35;;;;;;;5.20;3.30;;;;;;;1.85;87.75;99053.84;239434;1199;23549;-74
2021/04/15 08:36:01;;;;;;;5.67;4.47;;;;;;;1.86;86.75;99051.99;239523;1196;23267;-75
2021/04/15 08:41:23;;;;;;;4.87;3.80;;;;;;;1.87;87.68;99043.87;239555;1196;23139;-75
2021/04/15 08:46:41;;;;;;;3.55;3.25;;;;;;;1.94;87.73;99041.11;239687;1199;23125;-75
2021/04/15 08:52:15;;;;;;;4.37;3.37;;;;;;;2.04;87.19;99041.39;239544;1199;24565;-74
2021/04/15 08:57:43;;;;;;;3.83;3.07;;;;;;;2.12;86.72;99034.95;239481;1196;24549;-75
2021/04/15 09:03:09;;;;;;;3.45;3.10;;;;;;;2.07;86.40;99042.78;239642;1196;23142;-75
2021/04/15 09:08:22;;;;;;;4.73;3.63;;;;;;;1.96;86.34;99033.78;239576;1196;23419;-75
2021/04/15 09:13:31;;;;;;;3.90;3.13;;;;;;;1.90;86.33;99033.88;239537;1196;23255;-75
2021/04/15 09:18:58;;;;;;;4.75;3.40;;;;;;;1.86;86.62;99044.89;239498;1196;23116;-75
2021/04/15 09:24:20;;;;;;;4.40;3.85;;;;;;;1.92;87.16;99031.80;239521;1196;23289;-74
2021/04/15 09:30:21;;;;;;;4.15;3.75;;;;;;;1.96;86.59;99032.95;239662;1196;23131;-74
2021/04/15 09:35:26;;;;;;;4.55;3.65;;;;;;;1.94;87.53;99048.24;238692;1200;23146;-74
2021/04/15 09:41:01;;;;;;;6.25;4.40;;;;;;;1.90;86.89;99025.95;239610;1196;23137;-74
2021/04/15 09:46:29;;;;;;;6.10;5.25;;;;;;;1.91;86.72;99027.56;239446;1196;23186;-74
2021/04/15 09:51:47;;;;;;;5.93;4.97;;;;;;;1.96;87.16;99022.39;239725;1196;23111;-75
2021/04/15 09:57:31;;;;;;;5.63;4.07;;;;;;;1.95;87.49;99026.08;239621;1196;23207;-75
2021/04/15 10:02:57;;;;;;;5.35;4.85;;;;;;;1.93;87.00;99022.84;239617;1196;24702;-75
2021/04/15 10:08:08;;;;;;;6.40;4.53;;;;;;;1.92;87.12;99029.98;239859;1196;23148;-74
2021/04/15 10:13:34;;;;;;;6.60;4.63;;;;;;;1.96;87.15;99025.03;239661;1196;23115;-75
2021/04/15 10:18:50;;;;;;;6.37;4.23;;;;;;;2.03;87.36;99017.84;239668;1196;23568;-76
2021/04/15 10:23:59;;;;;;;5.97;3.97;;;;;;;2.01;87.33;99018.03;239883;1196;23138;-75
2021/04/15 10:29:13;;;;;;;5.65;3.78;;;;;;;1.98;86.37;99025.63;239780;1196;23102;-75
2021/04/15 10:34:34;;;;;;;5.50;3.70;;;;;;;1.95;87.19;99020.80;239900;1196;23108;-75
2021/04/15 10:40:14;;;;;;;7.70;5.33;;;;;;;1.97;87.14;99018.72;241228;1196;24056;-74
2021/04/15 10:45:38;;;;;;;5.67;4.53;;;;;;;1.96;86.55;99027.67;239500;1196;23256;-74
2021/04/15 10:50:44;;;;;;;5.33;4.13;;;;;;;1.99;86.90;99027.25;239593;1196;23117;-75
2021/04/15 10:55:50;;;;;;;5.45;4.75;;;;;;;1.90;87.16;99018.02;239530;1196;23138;-75
2021/04/15 11:00:55;;;;;;;11.83;5.40;;;;;;;1.85;86.45;99019.50;239566;1195;25234;-75
2021/04/15 11:05:58;;;;;;;6.40;4.50;;;;;;;1.92;86.68;99022.05;240232;1196;26140;-75
2021/04/15 11:11:20;;;;;;;6.23;5.20;;;;;;;2.00;86.87;99019.09;241226;1196;23137;-75
2021/04/15 11:16:23;;;;;;;5.50;4.20;;;;;;;2.12;86.81;99020.95;240179;1196;23564;-75
2021/04/15 11:21:35;;;;;;;5.53;4.40;;;;;;;2.22;86.93;99026.48;239792;1196;23111;-75
2021/04/15 11:26:48;;;;;;;5.93;4.47;;;;;;;2.17;86.23;99024.52;239802;1196;23131;-76
2021/04/15 11:31:51;;;;;;;5.65;4.55;;;;;;;2.21;86.48;99024.86;239765;1196;23121;-77
2021/04/15 11:37:20;;;;;;;6.73;4.73;;;;;;;2.21;86.97;99017.75;239378;1197;23139;-77
2021/04/15 11:42:34;;;;;;;6.10;4.35;;;;;;;2.24;87.01;99016.50;239285;1196;23213;-76
2021/04/15 11:47:37;;;;;;;5.40;3.87;;;;;;;2.22;86.34;99016.73;239568;1196;23136;-76
2021/04/15 11:52:46;;;;;;;6.65;3.90;;;;;;;2.22;86.85;99016.73;239427;1199;23148;-76
2021/04/15 11:58:04;;;;;;;6.60;4.00;;;;;;;2.28;87.15;99007.08;239490;1196;27316;-75
2021/04/15 12:03:12;;;;;;;5.97;4.47;;;;;;;2.32;86.97;99010.88;239752;1196;23128;-74
2021/04/15 12:08:22;;;;;;;5.30;3.60;;;;;;;2.35;86.72;99010.42;239351;1199;25603;-75
2021/04/15 12:13:48;;;;;;;7.23;4.93;;;;;;;2.40;86.75;99012.37;239578;1196;23115;-75
2021/04/15 12:18:58;;;;;;;5.13;4.43;;;;;;;2.49;86.83;99007.53;239662;1196;23151;-76
2021/04/15 12:24:24;;;;;;;6.70;4.23;;;;;;;2.55;86.73;99010.08;239904;1196;23224;-76
2021/04/15 12:29:39;;;;;;;4.53;3.80;;;;;;;2.55;86.94;99004.78;239986;1196;26217;-75
2021/04/15 12:35:06;;;;;;;5.20;3.80;;;;;;;2.54;86.84;98995.23;239545;1196;23115;-74
2021/04/15 12:40:15;;;;;;;3.80;3.13;;;;;;;2.61;86.38;99007.55;239561;1196;23325;-75
2021/04/15 12:45:30;;;;;;;4.45;3.40;;;;;;;2.58;86.21;99003.52;239799;1196;23130;-75
2021/04/15 12:50:35;;;;;;;4.30;3.35;;;;;;;2.58;86.47;99000.09;239621;1196;23256;-72
2021/04/15 12:55:37;;;;;;;3.60;3.20;;;;;;;2.55;86.02;98999.50;239766;1196;23107;-75
2021/04/15 13:00:45;;;;;;;3.80;3.30;;;;;;;2.55;86.58;99003.99;239556;1196;23244;-74
2021/04/15 13:05:56;;;;;;;3.35;2.95;;;;;;;2.53;86.64;98998.94;239842;1196;23109;-75
2021/04/15 13:11:26;;;;;;;4.80;3.73;;;;;;;2.59;86.98;98985.80;239630;1199;23116;-74
2021/04/15 13:16:33;;;;;;;4.60;3.43;;;;;;;2.75;86.56;98995.70;239678;1199;23074;-74
2021/04/15 13:21:56;;;;;;;6.15;4.05;;;;;;;2.83;86.39;98990.05;239810;1196;23191;-75
2021/04/15 13:32:58;;;;;;;4.90;3.55;;;;;;;2.81;86.21;98992.14;239946;1195;23118;-75
2021/04/15 13:38:01;;;;;;;4.93;3.80;;;;;;;2.78;86.39;98987.29;239584;1196;24580;-77
2021/04/15 13:43:49;;;;;;;5.93;4.10;;;;;;;2.77;86.45;98987.52;239564;1196;26235;-73
2021/04/15 13:49:20;;;;;;;6.05;4.40;;;;;;;2.78;86.31;98978.56;239249;1196;23179;-72
2021/04/15 13:54:39;;;;;;;5.17;3.40;;;;;;;2.71;86.05;98978.67;239281;1196;23249;-73
2021/04/15 13:59:50;;;;;;;4.70;3.47;;;;;;;2.66;86.71;98974.09;240116;1196;23111;-74
2021/04/15 14:04:58;;;;;;;4.30;3.30;;;;;;;2.61;86.44;98973.97;239844;1196;23144;-75
2021/04/15 14:10:16;;;;;;;5.30;4.13;;;;;;;2.54;86.58;98975.92;239675;1196;23118;-73
2021/04/15 14:15:34;;;;;;;4.47;3.60;;;;;;;2.47;86.81;98970.75;239506;1196;26193;-74
2021/04/15 14:20:42;;;;;;;4.50;3.43;;;;;;;2.43;86.18;98982.81;239517;1196;23218;-74
2021/04/15 14:25:46;;;;;;;6.17;3.83;;;;;;;2.39;86.39;98977.20;239405;1197;26182;-73
2021/04/15 14:30:49;;;;;;;4.40;3.30;;;;;;;2.37;86.70;98986.39;239292;1196;23108;-75
2021/04/15 14:35:54;;;;;;;5.17;3.83;;;;;;;2.36;86.41;98982.13;239394;1196;23351;-75
2021/04/15 14:40:59;;;;;;;5.20;3.95;;;;;;;2.42;87.11;98973.30;239352;1196;23098;-74
2021/04/15 14:46:19;;;;;;;4.03;3.53;;;;;;;2.44;86.55;98978.35;239448;1199;23100;-75
2021/04/15 14:51:28;;;;;;;4.83;4.13;;;;;;;2.42;86.51;98968.01;239518;1199;23103;-74
2021/04/15 14:56:31;;;;;;;6.10;4.30;;;;;;;2.45;86.99;98970.19;239322;1196;26127;-73
2021/04/15 15:01:42;;;;;;;5.77;4.37;;;;;;;2.44;86.35;98967.78;239448;1196;23198;-74
2021/04/15 15:06:49;;;;;;;4.03;3.43;;;;;;;2.39;86.37;98968.44;239632;1196;23305;-74
2021/04/15 15:11:54;;;;;;;5.35;4.05;;;;;;;2.37;86.59;98978.45;239563;1199;23115;-73
2021/04/15 15:16:59;;;;;;;5.30;4.03;;;;;;;2.34;87.16;98971.78;239582;1196;23119;-74
2021/04/15 15:22:06;;;;;;;7.13;5.03;;;;;;;2.31;86.77;98972.25;239490;1196;23128;-73
2021/04/15 15:27:09;;;;;;;8.87;4.83;;;;;;;2.32;87.48;98967.76;239545;1196;27313;-73
2021/04/15 15:32:22;;;;;;;6.90;4.95;;;;;;;2.31;87.32;98966.96;239209;1196;23119;-74
2021/04/15 15:37:36;;;;;;;5.70;4.20;;;;;;;2.22;86.96;98955.11;239461;1196;23112;-74
2021/04/15 15:42:51;;;;;;;6.60;5.30;;;;;;;2.17;87.13;98963.73;239607;1196;23241;-74
2021/04/15 15:47:59;;;;;;;7.23;5.20;;;;;;;2.15;86.89;98959.70;239562;1196;23279;-75
2021/04/15 15:53:18;;;;;;;7.23;5.70;;;;;;;2.11;87.57;98959.34;239354;1196;26153;-74
2021/04/15 15:58:29;;;;;;;7.40;4.80;;;;;;;2.12;86.91;98957.52;239469;1196;23239;-74
2021/04/15 16:03:33;;;;;;;8.40;5.10;;;;;;;2.08;87.67;98951.08;239329;1196;25684;-74
2021/04/15 16:08:37;;;;;;;7.20;5.60;;;;;;;2.05;86.98;98958.41;239407;1196;23351;-73
2021/04/15 16:13:45;;;;;;;8.70;6.65;;;;;;;2.02;87.27;98955.44;239431;1196;23422;-74
2021/04/15 16:18:50;;;;;;;8.57;6.27;;;;;;;2.02;87.34;98950.95;239591;1196;23122;-74
2021/04/15 16:24:17;;;;;;;9.05;7.00;;;;;;;2.00;87.58;98949.56;239493;1196;25968;-75
2021/04/15 16:29:20;;;;;;;8.17;6.47;;;;;;;1.97;87.58;98947.38;239589;1196;23112;-75
2021/04/15 16:34:27;;;;;;;9.30;6.70;;;;;;;1.93;87.69;98938.30;239657;1196;23104;-74
2021/04/15 16:39:32;;;;;;;9.10;6.50;;;;;;;1.91;87.42;98945.66;239549;1195;23138;-74
2021/04/15 16:44:36;;;;;;;9.20;6.65;;;;;;;1.90;87.90;98942.20;239422;1199;23141;-73
2021/04/15 16:49:39;;;;;;;10.33;7.87;;;;;;;1.94;87.99;98945.99;239482;1196;23118;-74
2021/04/15 16:54:43;;;;;;;12.05;8.35;;;;;;;1.98;88.04;98943.72;239650;1196;23121;-75
2021/04/15 16:59:45;;;;;;;8.43;6.70;;;;;;;1.95;87.73;98947.61;239546;1194;23308;-75
2021/04/15 17:04:49;;;;;;;11.23;8.23;;;;;;;1.95;87.60;98944.97;239458;1194;23122;-75
2021/04/15 17:09:53;;;;;;;7.67;5.90;;;;;;;1.91;87.83;98946.45;239405;1196;23574;-74
2021/04/15 17:14:56;;;;;;;11.65;8.00;;;;;;;1.91;88.15;98950.95;239444;1196;23090;-75
2021/04/15 17:20:00;;;;;;;9.70;7.05;;;;;;;1.93;88.70;98956.79;239399;1196;23118;-75
2021/04/15 17:25:05;;;;;;;10.90;8.30;;;;;;;1.95;88.37;98954.74;239452;1196;23118;-74
2021/04/15 17:30:10;;;;;;;9.57;7.60;;;;;;;1.96;88.13;98958.98;239541;1196;23105;-75
2021/04/15 17:35:15;;;;;;;9.10;6.90;;;;;;;1.95;88.33;98962.67;239506;1196;23106;-75
2021/04/15 17:40:21;;;;;;;11.50;8.55;;;;;;;1.92;87.99;98965.74;239644;1196;23108;-75
2021/04/15 17:45:25;;;;;;;9.35;7.50;;;;;;;1.93;87.79;98970.00;239427;1199;23122;-75
2021/04/15 17:50:39;;;;;;;10.77;8.30;;;;;;;1.94;88.20;98963.70;239326;1196;23149;-75
2021/04/15 17:55:42;;;;;;;9.47;7.67;;;;;;;1.94;88.27;98966.34;239318;1199;23211;-75
2021/04/15 18:00:45;;;;;;;11.67;8.53;;;;;;;1.94;88.15;98976.91;239449;1196;23106;-75
2021/04/15 18:05:48;;;;;;;10.37;7.77;;;;;;;1.93;88.76;98976.11;239681;1196;24868;-76
2021/04/15 18:10:54;;;;;;;14.93;10.03;;;;;;;1.98;88.33;98970.14;239447;1196;23112;-75
2021/04/15 18:15:58;;;;;;;10.87;8.13;;;;;;;1.99;88.84;98977.04;239303;1199;23119;-76
2021/04/15 18:21:03;;;;;;;13.10;9.67;;;;;;;1.98;88.38;98983.35;239506;1199;23245;-75
2021/04/15 18:26:06;;;;;;;15.13;10.60;;;;;;;1.96;88.87;98986.22;239370;1196;23119;-76
2021/04/15 18:31:13;;;;;;;14.65;10.55;;;;;;;1.93;88.77;98986.68;239598;1197;23122;-76
2021/04/15 18:36:20;;;;;;;14.90;9.67;;;;;;;1.93;88.42;98988.50;239372;1196;23141;-75
2021/04/15 18:41:26;;;;;;;11.70;7.20;;;;;;;1.90;88.74;98991.59;239348;1199;26604;-76
2021/04/15 18:46:28;;;;;;;11.87;6.90;;;;;;;1.84;88.30;98993.31;239389;1196;24747;-75
2021/04/15 18:51:32;;;;;;;9.90;7.23;;;;;;;1.75;88.16;99000.75;239389;1196;23279;-75
2021/04/15 18:56:35;;;;;;;8.37;6.53;;;;;;;1.70;88.83;98995.33;239637;1199;23280;-75
2021/04/15 19:01:39;;;;;;;13.50;8.30;;;;;;;1.66;88.86;98988.88;239515;1196;23118;-75
2021/04/15 19:06:42;;;;;;;11.20;7.97;;;;;;;1.66;88.97;98997.60;239452;1196;23095;-74
2021/04/15 19:11:46;;;;;;;10.90;7.50;;;;;;;1.65;89.20;98990.73;239344;1196;23265;-75
2021/04/15 19:16:49;;;;;;;11.03;7.83;;;;;;;1.67;89.30;98999.22;239709;1196;23305;-75
2021/04/15 19:21:52;;;;;;;12.40;8.43;;;;;;;1.65;89.00;99000.47;239199;1196;23156;-75
2021/04/15 19:26:57;;;;;;;11.37;8.57;;;;;;;1.63;88.54;98995.41;239491;1196;23138;-75
2021/04/15 19:32:01;;;;;;;12.75;8.75;;;;;;;1.64;88.92;98998.88;239646;1196;23119;-76
2021/04/15 19:37:05;;;;;;;11.85;8.25;;;;;;;1.64;89.20;98999.67;239546;1196;23142;-75
2021/04/15 19:42:08;;;;;;;12.30;8.90;;;;;;;1.65;88.90;99003.94;239485;1196;23099;-76
2021/04/15 19:47:11;;;;;;;10.63;7.60;;;;;;;1.65;88.74;98995.19;239468;1196;23115;-75
2021/04/15 19:52:14;;;;;;;12.67;8.97;;;;;;;1.64;88.92;98994.39;239351;1195;23219;-75
2021/04/15 19:57:16;;;;;;;14.80;10.47;;;;;;;1.66;89.47;99000.24;239350;1196;23561;-75
2021/04/15 20:02:20;;;;;;;13.95;9.45;;;;;;;1.68;89.08;99007.97;239566;1196;23109;-75
2021/04/15 20:07:22;;;;;;;16.30;11.45;;;;;;;1.67;88.89;99006.34;239386;1199;23251;-76
2021/04/15 20:12:25;;;;;;;11.60;8.80;;;;;;;1.70;88.97;99005.89;239319;1196;23119;-74
2021/04/15 20:17:28;;;;;;;13.13;8.87;;;;;;;1.67;89.08;98996.58;239393;1196;23114;-75
2021/04/15 20:22:31;;;;;;;11.00;7.53;;;;;;;1.64;88.79;98996.23;239518;1196;23121;-74
2021/04/15 20:27:36;;;;;;;11.33;8.37;;;;;;;1.59;89.09;98985.53;239547;1196;23118;-76
2021/04/15 20:32:39;;;;;;;14.00;9.90;;;;;;;1.57;89.25;98992.86;239360;1196;23094;-75
2021/04/15 20:37:42;;;;;;;15.25;10.50;;;;;;;1.56;88.76;98986.78;239385;1196;23116;-74
2021/04/15 20:42:45;;;;;;;13.30;9.65;;;;;;;1.56;89.09;98994.70;239473;1196;23095;-74
2021/04/15 20:47:49;;;;;;;15.10;10.25;;;;;;;1.59;89.27;98985.53;239618;1196;23141;-76
2021/04/15 20:52:52;;;;;;;13.35;9.35;;;;;;;1.62;89.21;98982.44;239446;1196;23115;-75
2021/04/15 20:57:55;;;;;;;13.90;9.00;;;;;;;1.64;89.08;98993.59;239450;1196;23125;-74
2021/04/15 21:02:58;;;;;;;16.25;10.55;;;;;;;1.61;89.59;98991.38;239405;1196;23138;-76
2021/04/15 21:08:01;;;;;;;13.75;9.30;;;;;;;1.59;88.85;98990.81;239563;1199;23121;-75
2021/04/15 21:13:05;;;;;;;15.25;10.15;;;;;;;1.58;89.17;98989.20;239349;1195;26283;-75
2021/04/15 21:18:09;;;;;;;16.37;10.37;;;;;;;1.57;89.16;98985.76;239646;1196;23124;-75
2021/04/15 21:23:12;;;;;;;14.27;8.93;;;;;;;1.57;89.01;98971.73;239336;1199;23103;-75
2021/04/15 21:28:17;;;;;;;13.50;9.30;;;;;;;1.52;89.16;98964.49;239480;1199;23105;-76
2021/04/15 21:33:23;;;;;;;16.95;10.15;;;;;;;1.48;89.24;98969.44;239693;1196;23119;-75
2021/04/15 21:38:28;;;;;;;16.40;11.00;;;;;;;1.47;89.30;98966.98;239266;1196;23108;-75
2021/04/15 21:43:30;;;;;;;15.53;9.80;;;;;;;1.45;88.89;98961.94;239392;1197;23154;-75
2021/04/15 21:48:34;;;;;;;15.67;10.33;;;;;;;1.44;89.14;98965.63;239495;1196;27372;-75
2021/04/15 21:53:39;;;;;;;16.80;10.70;;;;;;;1.42;89.09;98972.95;239515;1195;23286;-75
2021/04/15 21:58:42;;;;;;;18.30;10.93;;;;;;;1.43;89.46;98966.65;239421;1196;23115;-75
2021/04/15 22:03:45;;;;;;;15.05;10.60;;;;;;;1.43;89.86;98966.65;239409;1196;23112;-76
2021/04/15 22:08:52;;;;;;;14.40;9.20;;;;;;;1.43;89.28;98977.20;239437;1196;23169;-75
2021/04/15 22:13:56;;;;;;;14.80;9.87;;;;;;;1.45;89.18;98974.34;239588;1195;23181;-74
2021/04/15 22:19:04;;;;;;;15.93;10.73;;;;;;;1.44;89.11;98970.91;239008;1199;23177;-75
2021/04/15 22:24:37;;;;;;;13.67;8.73;;;;;;;1.43;89.27;98971.93;239311;1196;23111;-75
2021/04/15 22:29:40;;;;;;;18.20;12.23;;;;;;;1.42;89.68;98980.87;239261;1196;23134;-75
2021/04/15 22:34:43;;;;;;;15.20;10.00;;;;;;;1.42;90.10;98974.80;239344;1196;26251;-75
2021/04/15 22:39:46;;;;;;;17.03;11.03;;;;;;;1.37;89.71;98980.72;239303;1195;23113;-75
2021/04/15 22:44:48;;;;;;;15.20;9.60;;;;;;;1.35;89.79;98974.88;239477;1196;23414;-75
2021/04/15 22:49:51;;;;;;;16.95;11.10;;;;;;;1.37;89.31;98986.00;239270;1196;23113;-73
2021/04/15 22:54:54;;;;;;;19.70;12.10;;;;;;;1.39;89.96;98968.13;239535;1199;23321;-74
2021/04/15 22:59:57;;;;;;;16.50;10.73;;;;;;;1.35;89.81;98962.47;239662;1199;23088;-74
2021/04/15 23:05:00;;;;;;;16.75;11.65;;;;;;;1.31;89.62;98963.15;239498;1199;25273;-75
2021/04/15 23:10:04;;;;;;;17.17;10.83;;;;;;;1.29;89.88;98957.30;239283;1195;23166;-75
2021/04/15 23:15:09;;;;;;;18.50;11.20;;;;;;;1.27;89.35;98957.50;239078;1199;27484;-75
2021/04/15 23:20:16;;;;;;;15.33;9.70;;;;;;;1.25;89.37;98950.86;239367;1195;23275;-75
2021/04/15 23:25:19;;;;;;;14.40;9.20;;;;;;;1.25;90.41;98956.13;239481;1196;25679;-74
2021/04/15 23:30:28;;;;;;;16.53;10.40;;;;;;;1.22;89.60;98953.91;239367;1196;23098;-74
2021/04/15 23:35:31;;;;;;;19.95;10.65;;;;;;;1.22;89.94;98938.91;239413;1199;23115;-74
2021/04/15 23:40:40;;;;;;;17.10;10.40;;;;;;;1.25;89.75;98940.30;239355;1196;26233;-74
2021/04/15 23:45:44;;;;;;;15.65;9.95;;;;;;;1.21;90.38;98932.01;239384;1199;23443;-75
2021/04/15 23:50:51;;;;;;;18.83;11.10;;;;;;;1.19;90.32;98926.16;239524;1196;23145;-74
2021/04/15 23:55:54;;;;;;;16.40;9.95;;;;;;;1.17;90.32;98931.63;239360;1196;23134;-75
